Time;durP1;ratioP1;P1;durP2;ratioP2;P2;SDS_P1;SDS_P2;PMS_P1;PMS_P2;Temp;Humidity;BMP_temperature;BMP_pressure;BME280_temperature;BME280_humidity;BME280_pressure;Samples;Min_cycle;Max_cycle;Signal;HPM_P1;HPM_P2
2022/08/11 00:01:24;;;;;;;;;;;14.40;99.90;;;;;;5058876;28;20283;-57
2022/08/11 00:03:54;;;;;;;;;;;14.40;99.90;;;;;;5041108;28;20375;-57
2022/08/11 00:06:25;;;;;;;;;;;14.40;99.90;;;;;;5060284;28;19931;-56
2022/08/11 00:08:51;;;;;;;;;;;14.30;99.90;;;;;;5059797;28;19905;-57
2022/08/11 00:11:17;;;;;;;;;;;14.40;99.90;;;;;;5058283;28;19909;-57
2022/08/11 00:13:44;;;;;;;;;;;14.30;99.90;;;;;;5060527;28;19917;-58
2022/08/11 00:16:14;;;;;;;;;;;14.30;99.90;;;;;;5059532;28;19909;-57
2022/08/11 00:18:49;;;;;;;;;;;14.20;99.90;;;;;;5060935;28;20002;-57
2022/08/11 00:21:15;;;;;;;;;;;14.20;99.90;;;;;;5060989;28;19909;-57
2022/08/11 00:23:46;;;;;;;;;;;14.10;99.90;;;;;;5058525;28;19916;-57
2022/08/11 00:26:13;;;;;;;;;;;14.10;99.90;;;;;;5058435;28;19958;-57
2022/08/11 00:28:40;;;;;;;;;;;14.10;99.90;;;;;;5060547;28;19940;-58
2022/08/11 00:31:07;;;;;;;;;;;14.00;99.90;;;;;;5059072;28;19927;-58
2022/08/11 00:33:42;;;;;;;;;;;14.00;99.90;;;;;;5056988;28;19920;-58
2022/08/11 00:36:10;;;;;;;;;;;14.00;99.90;;;;;;5056224;28;19905;-57
2022/08/11 00:38:38;;;;;;;;;;;14.00;99.90;;;;;;5060257;28;19912;-57
2022/08/11 00:41:23;;;;;;;;;;;13.90;99.90;;;;;;5058754;28;19938;-58
2022/08/11 00:43:51;;;;;;;;;;;13.90;99.90;;;;;;5058321;28;19912;-57
2022/08/11 00:46:34;;;;;;;;;;;13.90;99.90;;;;;;5057567;28;19909;-57
2022/08/11 00:49:27;;;;;;;;;;;13.80;99.90;;;;;;5058287;28;19951;-57
2022/08/11 00:52:09;;;;;;;;;;;13.80;99.90;;;;;;5043637;28;20359;-58
2022/08/11 00:54:34;;;;;;;;;;;13.80;99.90;;;;;;5060274;28;19917;-58
2022/08/11 00:57:00;;;;;;;;;;;13.90;99.90;;;;;;5058069;28;19912;-57
2022/08/11 00:59:45;;;;;;;;;;;13.80;99.90;;;;;;5040749;28;19908;-57
2022/08/11 01:02:37;;;;;;;;;;;13.80;99.90;;;;;;5057432;28;19915;-57
2022/08/11 01:05:09;;;;;;;;;;;13.80;99.90;;;;;;5059727;28;19916;-57
2022/08/11 01:07:41;;;;;;;;;;;13.80;99.90;;;;;;5060127;28;19913;-57
2022/08/11 01:10:30;;;;;;;;;;;13.80;99.90;;;;;;5043254;28;19963;-58
2022/08/11 01:13:02;;;;;;;;;;;13.80;99.90;;;;;;5056621;28;20272;-57
2022/08/11 01:15:30;;;;;;;;;;;13.80;99.90;;;;;;5062673;28;19920;-57
2022/08/11 01:18:15;;;;;;;;;;;13.70;99.90;;;;;;5062115;28;19958;-57
2022/08/11 01:20:59;;;;;;;;;;;13.70;99.90;;;;;;5061360;28;19908;-57
2022/08/11 01:23:46;;;;;;;;;;;13.70;99.90;;;;;;5061757;28;19927;-57
2022/08/11 01:26:30;;;;;;;;;;;13.80;99.90;;;;;;5030317;28;20192;-58
2022/08/11 01:28:58;;;;;;;;;;;13.80;99.90;;;;;;5064678;28;20393;-57
2022/08/11 01:31:36;;;;;;;;;;;13.80;99.90;;;;;;5061498;28;19912;-57
2022/08/11 01:34:11;;;;;;;;;;;13.90;99.90;;;;;;5041004;28;20002;-57
2022/08/11 01:36:58;;;;;;;;;;;13.90;99.90;;;;;;5040978;28;20344;-57
2022/08/11 01:39:42;;;;;;;;;;;13.90;99.90;;;;;;5043124;28;19912;-57
2022/08/11 01:45:30;;;;;;;;;;;13.90;99.90;;;;;;5043065;28;20272;-56
2022/08/11 01:48:14;;;;;;;;;;;14.00;99.90;;;;;;5041321;28;19928;-57
2022/08/11 01:50:58;;;;;;;;;;;13.90;99.90;;;;;;5040763;28;19909;-57
2022/08/11 01:53:43;;;;;;;;;;;13.90;99.90;;;;;;5027489;28;19917;-57
2022/08/11 01:56:28;;;;;;;;;;;14.00;99.90;;;;;;5041727;28;20378;-57
2022/08/11 01:59:33;;;;;;;;;;;14.00;99.90;;;;;;5032500;28;19965;-57
2022/08/11 02:02:12;;;;;;;;;;;14.00;99.90;;;;;;4998167;28;19996;-56
2022/08/11 02:05:00;;;;;;;;;;;14.00;99.90;;;;;;4982368;28;20065;-57
2022/08/11 02:07:25;;;;;;;;;;;14.00;99.90;;;;;;5028841;28;20413;-57
2022/08/11 02:13:02;;;;;;;;;;;14.10;99.90;;;;;;5042758;28;19919;-58
2022/08/11 02:15:35;;;;;;;;;;;14.10;99.90;;;;;;5039595;28;19905;-57
2022/08/11 02:18:04;;;;;;;;;;;14.10;99.90;;;;;;5042896;28;19912;-57
2022/08/11 02:23:40;;;;;;;;;;;14.10;99.90;;;;;;5041437;28;19919;-56
2022/08/11 02:26:12;;;;;;;;;;;14.10;99.90;;;;;;5026334;28;20351;-56
2022/08/11 02:28:50;;;;;;;;;;;14.10;99.90;;;;;;5024347;28;19908;-56
2022/08/11 02:34:27;;;;;;;;;;;14.20;99.90;;;;;;5045790;28;19924;-58
2022/08/11 02:36:56;;;;;;;;;;;14.10;99.90;;;;;;5023641;28;19909;-57
2022/08/11 02:39:25;;;;;;;;;;;14.30;99.90;;;;;;5041832;28;20379;-57
2022/08/11 02:42:22;;;;;;;;;;;14.30;99.90;;;;;;5023056;28;19905;-57
2022/08/11 02:44:56;;;;;;;;;;;14.30;99.90;;;;;;5040363;28;19915;-58
2022/08/11 02:47:41;;;;;;;;;;;14.20;99.90;;;;;;5041889;28;19920;-57
2022/08/11 02:50:19;;;;;;;;;;;14.20;99.90;;;;;;5040431;28;19909;-57
2022/08/11 02:53:02;;;;;;;;;;;14.20;99.90;;;;;;5041928;28;19916;-58
2022/08/11 02:55:31;;;;;;;;;;;14.20;99.90;;;;;;5041683;28;19911;-58
2022/08/11 02:58:19;;;;;;;;;;;14.10;99.90;;;;;;5041798;28;19913;-57
2022/08/11 03:01:01;;;;;;;;;;;14.10;99.90;;;;;;5041441;28;19909;-57
2022/08/11 03:03:34;;;;;;;;;;;14.10;99.90;;;;;;5041750;28;19909;-57
2022/08/11 03:06:13;;;;;;;;;;;14.10;99.90;;;;;;5033975;28;19932;-58
2022/08/11 03:08:57;;;;;;;;;;;14.00;99.90;;;;;;5031197;28;19909;-58
2022/08/11 03:17:25;;;;;;;;;;;13.80;99.90;;;;;;5031330;28;19967;-58
2022/08/11 03:19:51;;;;;;;;;;;13.80;99.90;;;;;;5030856;28;20349;-57
2022/08/11 03:22:20;;;;;;;;;;;13.80;99.90;;;;;;5031223;28;19933;-58
2022/08/11 03:25:30;;;;;;;;;;;13.70;99.90;;;;;;5031167;28;19912;-58
2022/08/11 03:28:15;;;;;;;;;;;13.70;99.90;;;;;;4969862;28;19946;-58
2022/08/11 03:30:45;;;;;;;;;;;13.70;99.90;;;;;;4969749;28;20421;-58
2022/08/11 03:36:19;;;;;;;;;;;13.60;99.90;;;;;;5030581;28;19912;-57
2022/08/11 03:39:05;;;;;;;;;;;13.50;99.90;;;;;;5030450;28;20351;-61
2022/08/11 03:41:44;;;;;;;;;;;13.50;99.90;;;;;;5030279;28;19916;-57
2022/08/11 03:44:22;;;;;;;;;;;13.50;99.90;;;;;;5030923;28;19908;-57
2022/08/11 03:47:07;;;;;;;;;;;13.40;99.90;;;;;;5030784;28;19911;-57
2022/08/11 03:49:40;;;;;;;;;;;13.50;99.90;;;;;;5030183;28;19905;-57
2022/08/11 03:52:17;;;;;;;;;;;13.40;99.90;;;;;;5030997;28;19932;-58
2022/08/11 03:55:01;;;;;;;;;;;13.50;99.90;;;;;;5030721;28;20415;-57
2022/08/11 03:57:44;;;;;;;;;;;13.30;99.90;;;;;;5030360;28;20020;-57
2022/08/11 04:00:25;;;;;;;;;;;13.30;99.90;;;;;;5030385;28;20276;-57
2022/08/11 04:03:09;;;;;;;;;;;13.40;99.90;;;;;;5012707;28;20417;-57
2022/08/11 04:05:35;;;;;;;;;;;13.40;99.90;;;;;;5030331;28;19909;-56
2022/08/11 04:08:19;;;;;;;;;;;13.40;99.90;;;;;;5030398;28;19937;-56
2022/08/11 04:11:04;;;;;;;;;;;13.30;99.90;;;;;;5030523;28;19915;-58
2022/08/11 04:13:48;;;;;;;;;;;13.40;99.90;;;;;;5030574;28;19939;-58
2022/08/11 04:16:23;;;;;;;;;;;13.30;99.90;;;;;;5030070;28;19916;-59
2022/08/11 04:19:07;;;;;;;;;;;13.20;99.90;;;;;;5030112;28;19916;-57
2022/08/11 04:21:48;;;;;;;;;;;13.20;99.90;;;;;;5030365;28;19905;-57
2022/08/11 04:24:31;;;;;;;;;;;13.30;99.90;;;;;;5030444;28;19909;-57
2022/08/11 04:27:16;;;;;;;;;;;13.30;99.90;;;;;;5030344;28;19912;-57
2022/08/11 04:29:53;;;;;;;;;;;13.40;99.90;;;;;;5029594;28;19905;-57
2022/08/11 04:32:37;;;;;;;;;;;13.50;99.90;;;;;;5035599;28;19970;-58
2022/08/11 04:35:12;;;;;;;;;;;13.60;99.90;;;;;;5031912;28;20271;-58
2022/08/11 04:37:47;;;;;;;;;;;13.60;99.90;;;;;;5050156;28;19909;-58
2022/08/11 04:40:31;;;;;;;;;;;13.70;99.90;;;;;;5049808;28;19909;-58
2022/08/11 04:43:21;;;;;;;;;;;13.80;99.90;;;;;;5049721;28;19908;-58
2022/08/11 04:46:05;;;;;;;;;;;13.80;99.90;;;;;;5050069;28;19909;-57
2022/08/11 05:03:07;;;;;;;;;;;14.20;99.90;;;;;;5066701;28;19911;-57
2022/08/11 05:05:32;;;;;;;;;;;14.30;99.90;;;;;;5054719;28;19912;-57
2022/08/11 05:07:58;;;;;;;;;;;14.40;99.90;;;;;;5071924;28;20248;-57
2022/08/11 05:10:24;;;;;;;;;;;14.50;99.90;;;;;;5073115;28;19908;-57
2022/08/11 05:12:54;;;;;;;;;;;14.60;99.90;;;;;;5073487;28;20331;-58
2022/08/11 05:35:48;;;;;;;;;;;15.30;99.90;;;;;;5038122;28;19963;-57
2022/08/11 05:57:48;;;;;;;;;;;15.90;99.90;;;;;;5052553;28;19966;-58
2022/08/11 06:00:14;;;;;;;;;;;16.00;99.90;;;;;;5052549;28;19999;-57
2022/08/11 06:02:41;;;;;;;;;;;16.10;99.90;;;;;;5034504;28;19958;-58
2022/08/11 06:05:07;;;;;;;;;;;16.20;99.90;;;;;;5051915;28;19944;-57
2022/08/11 06:07:33;;;;;;;;;;;16.30;99.90;;;;;;5052428;28;19920;-60
2022/08/11 06:09:59;;;;;;;;;;;16.40;99.90;;;;;;5052291;28;19908;-58
2022/08/11 06:12:32;;;;;;;;;;;16.40;99.90;;;;;;5051890;28;19908;-58
2022/08/11 06:15:02;;;;;;;;;;;16.50;99.90;;;;;;5052239;28;19919;-57
2022/08/11 06:17:30;;;;;;;;;;;16.60;99.90;;;;;;5034164;28;19911;-58
2022/08/11 06:19:59;;;;;;;;;;;16.70;99.90;;;;;;5052784;28;19908;-58
2022/08/11 06:22:26;;;;;;;;;;;16.80;99.90;;;;;;5052717;28;19956;-58
2022/08/11 06:24:56;;;;;;;;;;;17.00;99.90;;;;;;5034549;28;20327;-58
2022/08/11 06:27:23;;;;;;;;;;;17.10;99.90;;;;;;5052364;28;19916;-58
2022/08/11 06:29:49;;;;;;;;;;;17.20;99.90;;;;;;5052357;28;20430;-58
2022/08/11 06:32:16;;;;;;;;;;;17.40;99.90;;;;;;5052121;28;19921;-57
2022/08/11 06:35:03;;;;;;;;;;;17.50;99.90;;;;;;5051970;28;20295;-57
2022/08/11 06:37:42;;;;;;;;;;;17.60;99.90;;;;;;5052149;28;19908;-57
2022/08/11 06:40:13;;;;;;;;;;;17.70;99.90;;;;;;5051448;28;19909;-57
2022/08/11 06:43:08;;;;;;;;;;;17.90;99.90;;;;;;5052072;28;19904;-58
2022/08/11 06:45:46;;;;;;;;;;;18.10;99.90;;;;;;5050250;28;19905;-57
2022/08/11 06:48:16;;;;;;;;;;;18.10;99.90;;;;;;5051616;28;19916;-57
2022/08/11 06:53:31;;;;;;;;;;;18.60;99.90;;;;;;5051683;28;19920;-57
2022/08/11 07:01:32;;;;;;;;;;;18.90;99.90;;;;;;5031469;28;19971;-57
2022/08/11 07:04:08;;;;;;;;;;;19.20;99.90;;;;;;5031437;28;19909;-58
2022/08/11 07:06:38;;;;;;;;;;;19.30;99.90;;;;;;5031424;28;19952;-58
2022/08/11 07:28:54;;;;;;;;;;;20.50;99.90;;;;;;5034334;28;19951;-57
2022/08/11 07:31:40;;;;;;;;;;;20.50;99.90;;;;;;5039389;28;19952;-57
2022/08/11 07:34:12;;;;;;;;;;;20.60;99.90;;;;;;5041023;28;19923;-57
2022/08/11 07:36:44;;;;;;;;;;;20.80;99.90;;;;;;5040427;28;19913;-57
2022/08/11 07:39:14;;;;;;;;;;;20.80;99.90;;;;;;5032398;28;19912;-57
2022/08/11 07:41:40;;;;;;;;;;;21.00;99.90;;;;;;5050780;28;20402;-58
2022/08/11 07:44:09;;;;;;;;;;;21.10;99.90;;;;;;5032478;28;19960;-58
2022/08/11 07:54:51;;;;;;;;;;;21.60;98.20;;;;;;5050746;28;20052;-57
2022/08/11 08:19:17;;;;;;;;;;;22.10;98.00;;;;;;5050207;28;19920;-58
2022/08/11 08:21:43;;;;;;;;;;;22.20;95.80;;;;;;5049484;28;20013;-58
2022/08/11 08:24:09;;;;;;;;;;;22.30;95.80;;;;;;5049702;28;20003;-58
2022/08/11 08:32:05;;;;;;;;;;;22.60;92.70;;;;;;5050244;28;20472;-57
2022/08/11 08:34:31;;;;;;;;;;;22.80;92.70;;;;;;5049624;28;19912;-58
2022/08/11 08:36:57;;;;;;;;;;;22.80;92.20;;;;;;5048178;28;19920;-58
2022/08/11 08:39:23;;;;;;;;;;;22.70;92.80;;;;;;5048284;28;19959;-59
2022/08/11 08:41:52;;;;;;;;;;;22.70;93.30;;;;;;5048512;28;20463;-58
2022/08/11 08:44:18;;;;;;;;;;;22.90;95.10;;;;;;5048893;28;19948;-57
2022/08/11 08:46:44;;;;;;;;;;;23.00;94.30;;;;;;5049234;28;20602;-57
2022/08/11 08:49:15;;;;;;;;;;;23.30;93.30;;;;;;5048960;28;19939;-58
2022/08/11 08:51:42;;;;;;;;;;;23.50;92.20;;;;;;5049743;28;20019;-57
2022/08/11 08:54:14;;;;;;;;;;;23.50;90.50;;;;;;5049710;28;19924;-58
2022/08/11 08:56:40;;;;;;;;;;;23.50;90.10;;;;;;5048589;28;19904;-59
2022/08/11 08:59:06;;;;;;;;;;;23.20;89.50;;;;;;5049582;28;20253;-60
2022/08/11 09:01:37;;;;;;;;;;;23.20;91.50;;;;;;5028141;28;19909;-59
2022/08/11 09:04:07;;;;;;;;;;;23.10;90.40;;;;;;5049405;28;19948;-59
2022/08/11 09:06:34;;;;;;;;;;;23.00;91.00;;;;;;5049862;28;19913;-57
2022/08/11 09:09:00;;;;;;;;;;;22.80;90.10;;;;;;5049494;28;20318;-56
2022/08/11 09:14:10;;;;;;;;;;;22.50;90.10;;;;;;5029576;28;20008;-58
2022/08/11 09:16:35;;;;;;;;;;;22.30;90.60;;;;;;5029397;28;20007;-57
2022/08/11 09:19:01;;;;;;;;;;;22.30;91.40;;;;;;5029497;28;19967;-57
2022/08/11 09:21:28;;;;;;;;;;;22.20;91.60;;;;;;5029939;28;19905;-57
2022/08/11 09:29:23;;;;;;;;;;;22.80;93.60;;;;;;5029107;28;19936;-57
2022/08/11 09:31:49;;;;;;;;;;;23.20;90.80;;;;;;5024037;28;20392;-57
2022/08/11 09:34:15;;;;;;;;;;;23.40;90.20;;;;;;5049511;28;19924;-57
2022/08/11 09:42:14;;;;;;;;;;;24.10;87.00;;;;;;5044731;28;19942;-57
2022/08/11 09:44:51;;;;;;;;;;;24.40;86.30;;;;;;5043532;28;19938;-57
2022/08/11 09:47:20;;;;;;;;;;;24.70;81.70;;;;;;5027032;28;20361;-57
2022/08/11 09:49:47;;;;;;;;;;;24.70;80.00;;;;;;5041332;28;19905;-57
2022/08/11 09:52:14;;;;;;;;;;;24.70;78.10;;;;;;5042048;28;19987;-57
2022/08/11 09:54:41;;;;;;;;;;;25.00;80.00;;;;;;5025461;28;19970;-57
2022/08/11 09:59:51;;;;;;;;;;;25.40;80.30;;;;;;5052773;28;19912;-57
2022/08/11 10:02:22;;;;;;;;;;;25.50;76.90;;;;;;5034544;28;20406;-58
2022/08/11 10:04:48;;;;;;;;;;;25.30;74.20;;;;;;5052463;28;19948;-57
2022/08/11 10:07:15;;;;;;;;;;;25.30;74.20;;;;;;5052223;28;19909;-57
2022/08/11 10:09:51;;;;;;;;;;;25.50;75.50;;;;;;5052472;28;19909;-57
2022/08/11 10:12:16;;;;;;;;;;;25.60;73.70;;;;;;5052203;28;19928;-57
2022/08/11 10:17:32;;;;;;;;;;;25.00;74.80;;;;;;5052566;28;20598;-57
2022/08/11 10:20:01;;;;;;;;;;;24.90;74.70;;;;;;5051941;28;19904;-57
2022/08/11 10:27:58;;;;;;;;;;;25.00;71.90;;;;;;5032346;28;20229;-57
2022/08/11 10:36:00;;;;;;;;;;;25.60;72.40;;;;;;5051816;28;19963;-57
2022/08/11 10:38:26;;;;;;;;;;;26.00;72.10;;;;;;5051155;28;19909;-58
2022/08/11 10:43:01;;;;;;;;;;;26.00;69.50;;;;;;5051828;28;19927;-57
2022/08/11 10:43:40;;;;;;;;;;;26.00;72.80;;;;;;5051796;28;19988;-57
2022/08/11 10:48:53;;;;;;;;;;;26.30;66.90;;;;;;5051619;28;20016;-57
2022/08/11 10:51:19;;;;;;;;;;;26.00;69.50;;;;;;5051630;28;19912;-58
2022/08/11 10:59:21;;;;;;;;;;;25.10;67.90;;;;;;5059788;28;20358;-57
2022/08/11 11:01:46;;;;;;;;;;;24.90;69.50;;;;;;5059246;28;19916;-57
2022/08/11 11:04:35;;;;;;;;;;;24.80;70.40;;;;;;5059097;28;19912;-57
2022/08/11 11:07:06;;;;;;;;;;;24.70;69.60;;;;;;5040553;28;19909;-57
2022/08/11 11:09:46;;;;;;;;;;;24.50;70.00;;;;;;5059046;28;19995;-58
2022/08/11 11:18:03;;;;;;;;;;;24.80;74.50;;;;;;5058859;28;19939;-56
2022/08/11 11:20:34;;;;;;;;;;;25.10;71.90;;;;;;5059277;28;19935;-57
2022/08/11 11:23:12;;;;;;;;;;;25.10;71.20;;;;;;5059991;28;19919;-56
2022/08/11 11:26:05;;;;;;;;;;;25.10;70.30;;;;;;5061384;28;20011;-56
2022/08/11 11:28:42;;;;;;;;;;;25.30;68.40;;;;;;5061317;28;19913;-56
2022/08/11 11:31:10;;;;;;;;;;;25.60;70.30;;;;;;5059470;28;20273;-56
2022/08/11 11:33:55;;;;;;;;;;;25.80;77.40;;;;;;5068103;28;19975;-57
2022/08/11 11:36:38;;;;;;;;;;;26.40;66.50;;;;;;5068749;28;19908;-57
2022/08/11 11:39:05;;;;;;;;;;;26.70;69.00;;;;;;5070009;28;19915;-57
2022/08/11 11:41:31;;;;;;;;;;;26.90;65.80;;;;;;5070354;28;19989;-57
2022/08/11 11:43:57;;;;;;;;;;;27.10;64.30;;;;;;5066565;28;19947;-57
2022/08/11 11:46:26;;;;;;;;;;;27.30;68.90;;;;;;5067581;28;19947;-57
2022/08/11 11:48:53;;;;;;;;;;;27.00;60.60;;;;;;5068856;28;19904;-57
2022/08/11 11:51:19;;;;;;;;;;;27.30;64.10;;;;;;5070309;28;19909;-57
2022/08/11 11:53:45;;;;;;;;;;;27.60;63.00;;;;;;5070518;28;19913;-57
2022/08/11 11:56:11;;;;;;;;;;;27.40;58.80;;;;;;5070137;28;20360;-57
2022/08/11 12:01:24;;;;;;;;;;;26.50;59.90;;;;;;5070665;28;19942;-57
2022/08/11 12:03:50;;;;;;;;;;;26.20;60.70;;;;;;5070496;28;19908;-58
2022/08/11 12:06:18;;;;;;;;;;;25.90;60.30;;;;;;5069992;28;19947;-57
2022/08/11 12:08:46;;;;;;;;;;;26.30;61.20;;;;;;5068792;28;20764;-57
2022/08/11 12:13:58;;;;;;;;;;;26.80;61.20;;;;;;5069673;28;19927;-57
2022/08/11 12:16:24;;;;;;;;;;;26.50;63.50;;;;;;5069633;28;19909;-58
2022/08/11 12:18:51;;;;;;;;;;;26.30;62.20;;;;;;5069293;28;20445;-57
2022/08/11 12:21:17;;;;;;;;;;;26.10;64.30;;;;;;5069666;28;19915;-59
2022/08/11 12:29:13;;;;;;;;;;;25.50;61.90;;;;;;5069960;28;20045;-57
2022/08/11 12:31:39;;;;;;;;;;;25.50;66.90;;;;;;5070180;28;19999;-57
2022/08/11 12:34:08;;;;;;;;;;;25.60;61.60;;;;;;5040237;28;19921;-58
2022/08/11 12:36:38;;;;;;;;;;;25.80;71.50;;;;;;5049828;28;19916;-57
2022/08/11 12:39:09;;;;;;;;;;;26.30;63.80;;;;;;5049611;28;19940;-57
2022/08/11 12:47:06;;;;;;;;;;;27.70;58.80;;;;;;5050161;28;20600;-57
2022/08/11 12:52:21;;;;;;;;;;;26.90;58.80;;;;;;5070305;28;20355;-57
2022/08/11 12:54:48;;;;;;;;;;;26.60;59.40;;;;;;5069657;28;19912;-57
2022/08/11 13:05:31;;;;;;;;;;;26.60;62.50;;;;;;5069873;28;20691;-57
2022/08/11 13:07:59;;;;;;;;;;;27.10;62.30;;;;;;5070085;28;20312;-57
2022/08/11 13:13:09;;;;;;;;;;;27.90;61.40;;;;;;5073607;28;20434;-57
2022/08/11 13:15:37;;;;;;;;;;;28.20;60.70;;;;;;5073327;28;19917;-57
2022/08/11 13:18:06;;;;;;;;;;;28.50;58.80;;;;;;5073200;28;20423;-58
2022/08/11 13:20:32;;;;;;;;;;;28.80;57.40;;;;;;5055186;28;19915;-57
2022/08/11 13:22:58;;;;;;;;;;;28.80;59.70;;;;;;5073189;28;19904;-57
2022/08/11 13:25:25;;;;;;;;;;;28.80;59.10;;;;;;5073346;28;19974;-57
2022/08/11 13:27:52;;;;;;;;;;;29.10;58.20;;;;;;5073024;28;20430;-57
2022/08/11 13:33:03;;;;;;;;;;;29.30;56.40;;;;;;5073183;28;19971;-58
2022/08/11 13:35:32;;;;;;;;;;;29.50;57.00;;;;;;5054871;28;19939;-57
2022/08/11 13:38:00;;;;;;;;;;;29.40;54.60;;;;;;5073075;28;19909;-57
2022/08/11 13:40:26;;;;;;;;;;;29.00;55.30;;;;;;5072699;28;19943;-57
2022/08/11 13:42:52;;;;;;;;;;;28.60;55.60;;;;;;5072994;28;19955;-57
2022/08/11 13:45:22;;;;;;;;;;;28.20;57.10;;;;;;5072636;28;20355;-57
2022/08/11 13:47:48;;;;;;;;;;;28.60;58.90;;;;;;5072769;28;19939;-58
2022/08/11 13:50:14;;;;;;;;;;;28.70;64.30;;;;;;5072400;28;20378;-57
2022/08/11 13:52:41;;;;;;;;;;;29.30;57.50;;;;;;5072625;28;19908;-57
2022/08/11 13:55:07;;;;;;;;;;;29.30;54.60;;;;;;5054607;28;19928;-56
2022/08/11 13:57:33;;;;;;;;;;;29.50;55.40;;;;;;5072414;28;20750;-57
2022/08/11 14:00:08;;;;;;;;;;;29.40;54.40;;;;;;5072438;28;20363;-57
2022/08/11 14:02:36;;;;;;;;;;;29.60;56.70;;;;;;5072604;28;20322;-57
2022/08/11 14:05:06;;;;;;;;;;;29.30;58.00;;;;;;5072846;28;19912;-57
2022/08/11 14:07:37;;;;;;;;;;;29.10;54.40;;;;;;5072240;28;19955;-57
2022/08/11 14:10:05;;;;;;;;;;;29.20;54.20;;;;;;5072210;28;19944;-57
2022/08/11 14:15:19;;;;;;;;;;;28.50;54.30;;;;;;5072170;28;19982;-57
2022/08/11 14:17:48;;;;;;;;;;;28.10;54.90;;;;;;5072159;28;19908;-57
2022/08/11 14:20:15;;;;;;;;;;;27.70;54.80;;;;;;5072116;28;19935;-57
2022/08/11 14:22:42;;;;;;;;;;;27.20;55.20;;;;;;5071979;28;20430;-56
2022/08/11 14:25:08;;;;;;;;;;;26.60;59.00;;;;;;5072148;28;19911;-56
2022/08/11 14:27:34;;;;;;;;;;;26.30;61.90;;;;;;5069260;28;19909;-56
2022/08/11 14:29:59;;;;;;;;;;;25.60;63.60;;;;;;5051674;28;19911;-55
2022/08/11 14:32:25;;;;;;;;;;;25.40;65.90;;;;;;5050272;28;19928;-56
2022/08/11 14:34:51;;;;;;;;;;;24.30;72.20;;;;;;5051570;28;20015;-56
2022/08/11 14:37:21;;;;;;;;;;;23.80;80.20;;;;;;5051926;28;19913;-56
2022/08/11 14:39:49;;;;;;;;;;;22.60;90.00;;;;;;5051936;28;19999;-56
2022/08/11 14:47:48;;;;;;;;;;;21.50;99.90;;;;;;5062743;28;19951;-56
2022/08/11 14:50:17;;;;;;;;;;;21.20;99.90;;;;;;5059780;28;19939;-57
2022/08/11 14:52:47;;;;;;;;;;;21.00;99.90;;;;;;5065693;28;19985;-56
2022/08/11 14:57:57;;;;;;;;;;;20.30;99.90;;;;;;5059559;28;19951;-56
2022/08/11 15:00:23;;;;;;;;;;;20.10;99.90;;;;;;5062840;28;20430;-56
2022/08/11 15:05:35;;;;;;;;;;;19.90;99.90;;;;;;5065407;28;19966;-56
2022/08/11 15:08:00;;;;;;;;;;;19.90;99.90;;;;;;5059619;28;20356;-55
2022/08/11 15:10:26;;;;;;;;;;;19.80;99.90;;;;;;5061196;28;19911;-55
2022/08/11 15:12:52;;;;;;;;;;;20.00;99.90;;;;;;5060820;28;19905;-55
2022/08/11 15:18:04;;;;;;;;;;;19.90;99.90;;;;;;5062358;28;19911;-55
2022/08/11 15:26:08;;;;;;;;;;;20.10;99.90;;;;;;5061333;28;19966;-54
2022/08/11 15:48:13;;;;;;;;;;;19.60;99.90;;;;;;5050627;28;20020;-55
2022/08/11 15:50:41;;;;;;;;;;;19.40;99.90;;;;;;5050240;28;19936;-55
2022/08/11 15:53:18;;;;;;;;;;;19.40;99.90;;;;;;5055426;28;20006;-55
2022/08/11 15:55:44;;;;;;;;;;;19.40;99.90;;;;;;5058096;28;19921;-54
2022/08/11 16:04:12;;;;;;;;;;;19.70;99.90;;;;;;5060348;28;19931;-54
2022/08/11 16:06:53;;;;;;;;;;;19.70;99.90;;;;;;5059814;28;19912;-54
2022/08/11 16:09:25;;;;;;;;;;;19.70;99.90;;;;;;5059883;28;19905;-55
2022/08/11 16:11:51;;;;;;;;;;;19.70;99.90;;;;;;5059160;28;19999;-56
2022/08/11 16:17:04;;;;;;;;;;;19.60;99.90;;;;;;5060940;28;19915;-55
2022/08/11 16:19:33;;;;;;;;;;;19.80;99.90;;;;;;5058810;28;19969;-54
2022/08/11 16:21:59;;;;;;;;;;;20.00;99.90;;;;;;5059630;28;19908;-54
2022/08/11 16:24:25;;;;;;;;;;;20.10;99.90;;;;;;5058632;28;19909;-54
2022/08/11 16:26:52;;;;;;;;;;;20.10;99.90;;;;;;5058688;28;19954;-54
2022/08/11 16:29:18;;;;;;;;;;;20.00;99.90;;;;;;5059730;28;19905;-54
2022/08/11 16:32:15;;;;;;;;;;;19.90;99.90;;;;;;5057933;28;20331;-54
2022/08/11 16:40:01;;;;;;;;;;;19.70;99.90;;;;;;5060747;28;20018;-54
2022/08/11 16:47:55;;;;;;;;;;;20.20;99.90;;;;;;5061163;28;19915;-54
2022/08/11 16:50:21;;;;;;;;;;;21.00;99.90;;;;;;5062093;28;20303;-54
2022/08/11 16:52:46;;;;;;;;;;;21.30;99.90;;;;;;5062074;28;19959;-54
2022/08/11 16:55:12;;;;;;;;;;;21.10;99.90;;;;;;5063714;28;19909;-55
2022/08/11 17:00:23;;;;;;;;;;;20.60;99.90;;;;;;5064641;28;20031;-57
2022/08/11 17:14:09;;;;;;;;;;;19.80;99.90;;;;;;5073141;28;19926;-56
2022/08/11 17:16:37;;;;;;;;;;;19.70;99.90;;;;;;5073374;28;19909;-56
2022/08/11 17:19:05;;;;;;;;;;;19.60;99.90;;;;;;5073321;28;19908;-56
2022/08/11 17:23:45;;;;;;;;;;;19.50;99.90;;;;;;5073614;28;19935;-56
2022/08/11 17:24:27;;;;;;;;;;;19.40;99.90;;;;;;5064142;28;19995;-54
2022/08/11 17:26:55;;;;;;;;;;;19.40;99.90;;;;;;5063768;28;19930;-54
2022/08/11 17:29:38;;;;;;;;;;;19.30;99.90;;;;;;5063232;28;20023;-54
2022/08/11 17:37:47;;;;;;;;;;;19.30;99.90;;;;;;5052188;28;20299;-54
2022/08/11 17:40:16;;;;;;;;;;;19.20;99.90;;;;;;5052652;28;20462;-54
2022/08/11 17:48:24;;;;;;;;;;;19.00;99.90;;;;;;5050174;28;19923;-54
2022/08/11 17:50:51;;;;;;;;;;;19.00;99.90;;;;;;5052275;28;19908;-57
2022/08/11 18:01:34;;;;;;;;;;;18.60;99.90;;;;;;5051850;28;20406;-55
2022/08/11 18:04:01;;;;;;;;;;;18.50;99.90;;;;;;5052059;28;19905;-55
2022/08/11 18:06:29;;;;;;;;;;;18.40;99.90;;;;;;5034186;28;20486;-55
